Time;durP1;ratioP1;P1;durP2;ratioP2;P2;SDS_P1;SDS_P2;PMS_P1;PMS_P2;Temp;Humidity;BMP_temperature;BMP_pressure;BME280_temperature;BME280_humidity;BME280_pressure;Samples;Min_cycle;Max_cycle;Signal;HPM_P1;HPM_P2
2022/04/05 00:01:19;;;;;;;117.68;37.05;;;;;;;8.34;100.00;100188.38;4987854;28;20034;-75
2022/04/05 00:03:45;;;;;;;119.40;39.03;;;;;;;8.29;100.00;100186.88;4967297;28;20022;-75
2022/04/05 00:06:10;;;;;;;122.07;39.47;;;;;;;8.42;100.00;100178.56;4973379;28;20032;-75
2022/04/05 00:08:36;;;;;;;125.78;41.20;;;;;;;8.49;100.00;100183.56;4979814;28;20042;-76
2022/04/05 00:11:01;;;;;;;148.15;43.60;;;;;;;8.48;100.00;100179.97;4975346;28;20038;-75
2022/04/05 00:13:26;;;;;;;153.15;43.15;;;;;;;8.50;100.00;100182.59;4969899;28;20042;-76
2022/04/05 00:15:52;;;;;;;173.38;46.10;;;;;;;8.46;100.00;100190.13;4968620;28;20035;-76
2022/04/05 00:18:17;;;;;;;126.55;42.33;;;;;;;8.53;100.00;100176.88;4956728;28;20521;-76
2022/04/05 00:20:43;;;;;;;156.45;44.83;;;;;;;8.62;100.00;100187.03;4980980;28;20041;-75
2022/04/05 00:23:08;;;;;;;130.63;41.40;;;;;;;8.68;100.00;100183.81;4953818;28;20549;-76
2022/04/05 00:25:33;;;;;;;129.07;40.13;;;;;;;8.71;100.00;100186.28;4967670;28;20054;-75
2022/04/05 00:27:59;;;;;;;140.05;39.03;;;;;;;8.78;100.00;100186.66;4990755;28;20045;-75
2022/04/05 00:30:25;;;;;;;103.10;34.17;;;;;;;8.94;100.00;100192.56;4962229;28;20042;-75
2022/04/05 00:32:50;;;;;;;88.05;30.90;;;;;;;9.00;100.00;100180.25;4972710;28;20058;-75
2022/04/05 00:35:16;;;;;;;81.68;29.88;;;;;;;9.12;100.00;100192.03;4971061;28;20501;-76
2022/04/05 00:37:41;;;;;;;89.63;29.23;;;;;;;9.05;100.00;100193.53;4984734;28;20037;-76
2022/04/05 00:40:08;;;;;;;80.07;29.33;;;;;;;9.07;100.00;100194.25;4974627;28;20038;-75
2022/04/05 00:42:34;;;;;;;75.88;27.17;;;;;;;9.17;100.00;100192.50;4991608;28;20041;-76
2022/04/05 00:44:59;;;;;;;88.38;28.20;;;;;;;9.11;100.00;100196.59;4966630;28;20030;-76
2022/04/05 00:47:25;;;;;;;84.80;27.88;;;;;;;9.08;100.00;100187.81;4970179;28;20026;-75
2022/04/05 00:49:55;;;;;;;83.85;27.50;;;;;;;9.17;100.00;100200.72;4982525;28;20538;-76
2022/04/05 00:52:22;;;;;;;81.47;26.35;;;;;;;9.14;100.00;100198.22;4986437;28;20038;-75
2022/04/05 00:54:51;;;;;;;74.50;25.02;;;;;;;9.13;100.00;100199.22;4955949;28;20058;-76
2022/04/05 00:57:19;;;;;;;74.32;23.90;;;;;;;9.16;100.00;100198.97;4965006;28;20054;-75
2022/04/05 00:59:47;;;;;;;88.60;25.67;;;;;;;9.09;100.00;100195.88;4964892;28;20042;-75
2022/04/05 01:02:16;;;;;;;79.20;24.70;;;;;;;9.09;100.00;100184.09;4969120;28;20026;-75
2022/04/05 01:04:42;;;;;;;73.57;24.48;;;;;;;9.10;100.00;100197.63;4987591;28;20037;-75
2022/04/05 01:07:16;;;;;;;93.05;26.92;;;;;;;9.04;100.00;100192.66;4987304;28;20031;-75
2022/04/05 01:09:41;;;;;;;89.30;25.70;;;;;;;9.08;100.00;100196.84;4962115;28;20113;-75
2022/04/05 01:12:10;;;;;;;76.07;24.70;;;;;;;9.07;100.00;100208.81;4989127;28;20483;-75
2022/04/05 01:14:37;;;;;;;85.45;26.23;;;;;;;9.06;100.00;100206.19;4984510;28;20062;-75
2022/04/05 01:17:04;;;;;;;75.72;25.23;;;;;;;9.07;100.00;100210.63;4971104;28;20030;-76
2022/04/05 01:19:31;;;;;;;75.03;24.75;;;;;;;9.10;100.00;100213.13;4985170;28;20039;-76
2022/04/05 01:21:57;;;;;;;77.70;25.90;;;;;;;9.11;100.00;100206.66;4964879;28;20038;-76
2022/04/05 01:24:22;;;;;;;95.43;25.10;;;;;;;9.06;100.00;100198.00;4961711;28;20129;-75
2022/04/05 01:26:53;;;;;;;75.78;24.10;;;;;;;9.14;100.00;100207.28;4972637;28;20507;-75
2022/04/05 01:29:22;;;;;;;74.35;23.63;;;;;;;9.11;100.00;100204.81;4982802;28;20043;-75
2022/04/05 01:31:50;;;;;;;77.95;24.17;;;;;;;9.10;100.00;100213.13;4985024;28;20068;-75
2022/04/05 01:34:18;;;;;;;77.60;22.20;;;;;;;9.17;100.00;100209.75;4958471;28;20049;-76
2022/04/05 01:36:56;;;;;;;64.72;22.33;;;;;;;9.10;100.00;100208.53;4967572;28;20027;-76
2022/04/05 01:39:27;;;;;;;80.88;23.15;;;;;;;9.07;100.00;100210.63;4965004;28;20051;-76
2022/04/05 01:42:01;;;;;;;88.15;23.58;;;;;;;9.05;100.00;100209.91;4972141;28;20047;-75
2022/04/05 01:44:28;;;;;;;89.32;25.58;;;;;;;9.02;100.00;100205.59;4965824;28;20041;-75
2022/04/05 01:46:54;;;;;;;61.83;24.67;;;;;;;9.06;100.00;100204.31;4959452;28;20030;-76
2022/04/05 01:49:20;;;;;;;90.25;25.60;;;;;;;9.02;100.00;100206.44;4954750;28;20077;-76
2022/04/05 01:51:46;;;;;;;94.60;24.70;;;;;;;8.99;100.00;100206.69;4963064;28;20078;-75
2022/04/05 01:54:14;;;;;;;78.22;24.33;;;;;;;9.02;100.00;100205.59;4969063;28;20043;-75
2022/04/05 01:56:42;;;;;;;77.25;24.30;;;;;;;9.02;100.00;100205.59;4966401;28;20035;-75
2022/04/05 01:59:09;;;;;;;80.88;24.60;;;;;;;9.04;100.00;100206.31;4954681;28;20043;-75
2022/04/05 02:01:34;;;;;;;83.95;25.27;;;;;;;9.06;100.00;100207.06;4967212;28;20157;-75
2022/04/05 02:04:00;;;;;;;84.00;24.98;;;;;;;8.99;100.00;100209.44;4964204;28;20073;-75
2022/04/05 02:06:25;;;;;;;89.25;27.33;;;;;;;9.02;100.00;100206.44;4969982;28;20110;-75
2022/04/05 02:08:51;;;;;;;81.85;25.00;;;;;;;8.99;100.00;100211.31;4967396;28;20026;-75
2022/04/05 02:11:16;;;;;;;93.47;24.83;;;;;;;8.92;100.00;100210.94;4958436;28;20678;-76
2022/04/05 02:13:42;;;;;;;82.07;25.80;;;;;;;8.98;100.00;100204.94;4947958;29;20447;-75
2022/04/05 02:16:08;;;;;;;88.35;25.60;;;;;;;8.97;100.00;100203.22;4956575;28;23189;-75
2022/04/05 02:18:36;;;;;;;92.53;25.10;;;;;;;8.97;100.00;100216.88;4966945;28;20034;-76
2022/04/05 02:21:01;;;;;;;79.40;24.55;;;;;;;8.95;100.00;100210.69;4957000;28;20053;-75
2022/04/05 02:23:28;;;;;;;76.35;25.77;;;;;;;8.96;100.00;100217.00;4973282;28;20031;-75
2022/04/05 02:25:53;;;;;;;92.95;27.30;;;;;;;8.95;100.00;100205.22;4968433;28;20030;-75
2022/04/05 02:28:18;;;;;;;83.30;25.85;;;;;;;8.93;100.00;100217.25;4964650;28;20094;-76
2022/04/05 02:30:44;;;;;;;75.25;26.50;;;;;;;8.97;100.00;100216.88;4956604;28;20031;-75
2022/04/05 02:33:09;;;;;;;75.28;24.80;;;;;;;8.98;100.00;100215.88;4980207;28;20406;-75
2022/04/05 02:35:37;;;;;;;83.32;26.73;;;;;;;8.96;100.00;100217.88;4955232;28;20069;-75
2022/04/05 02:38:03;;;;;;;92.00;25.33;;;;;;;9.01;100.00;100225.69;4968260;28;20899;-75
2022/04/05 02:40:28;;;;;;;92.95;27.05;;;;;;;8.97;100.00;100225.06;4990448;28;20038;-75
2022/04/05 02:42:54;;;;;;;78.72;27.35;;;;;;;8.96;100.00;100219.75;4976963;28;20038;-75
2022/04/05 02:45:20;;;;;;;80.82;25.70;;;;;;;9.02;100.00;100224.69;4996003;28;20038;-75
2022/04/05 02:47:45;;;;;;;75.90;25.63;;;;;;;8.96;100.00;100219.75;4967279;28;20117;-75
2022/04/05 02:50:11;;;;;;;83.35;26.13;;;;;;;8.94;100.00;100225.31;4988148;28;20098;-76
2022/04/05 02:52:36;;;;;;;86.10;26.33;;;;;;;8.93;100.00;100217.25;4969567;28;20069;-75
2022/04/05 02:55:03;;;;;;;77.15;26.02;;;;;;;8.91;100.00;100217.38;4993512;28;20185;-75
2022/04/05 02:57:28;;;;;;;78.50;25.58;;;;;;;8.98;100.00;100215.88;4982298;28;20052;-75
2022/04/05 02:59:54;;;;;;;79.22;24.52;;;;;;;8.87;100.00;100209.56;4989341;28;20361;-76
2022/04/05 03:02:20;;;;;;;66.88;22.88;;;;;;;8.92;100.00;100210.94;4967304;28;20038;-76
2022/04/05 03:04:45;;;;;;;72.85;23.45;;;;;;;8.93;100.00;100215.38;4979416;28;20093;-76
2022/04/05 03:07:11;;;;;;;71.63;23.55;;;;;;;8.88;100.00;100219.50;4973822;28;20126;-76
2022/04/05 03:09:36;;;;;;;66.45;22.25;;;;;;;8.96;100.00;100212.41;4986613;28;20034;-76
2022/04/05 03:12:02;;;;;;;64.15;23.67;;;;;;;8.94;100.00;100219.00;4960425;28;20034;-76
2022/04/05 03:14:27;;;;;;;70.55;23.58;;;;;;;8.90;100.00;100217.50;4977196;28;20039;-76
2022/04/05 03:16:52;;;;;;;67.72;22.83;;;;;;;8.96;100.00;100223.34;4978793;28;20038;-76
2022/04/05 03:19:18;;;;;;;69.85;24.88;;;;;;;8.96;100.00;100219.75;4985724;28;20037;-76
2022/04/05 03:21:43;;;;;;;71.45;23.30;;;;;;;8.91;100.00;100219.25;4984903;28;20041;-76
2022/04/05 03:24:09;;;;;;;88.93;23.98;;;;;;;8.89;100.00;100215.78;4985309;28;20414;-76
2022/04/05 03:26:34;;;;;;;67.43;22.20;;;;;;;8.93;100.00;100220.84;4976181;28;20033;-76
2022/04/05 03:29:02;;;;;;;89.10;24.63;;;;;;;8.86;100.00;100216.91;4971536;28;20058;-76
2022/04/05 03:31:28;;;;;;;71.65;23.38;;;;;;;8.91;100.00;100214.66;4953284;28;20077;-76
2022/04/05 03:33:53;;;;;;;74.03;23.83;;;;;;;8.97;100.00;100221.50;4942525;29;20444;-76
2022/04/05 03:36:19;;;;;;;77.43;23.60;;;;;;;8.90;100.00;100212.91;4969547;28;20074;-76
2022/04/05 03:38:44;;;;;;;77.35;23.02;;;;;;;8.89;100.00;100222.13;4967953;28;20047;-76
2022/04/05 03:41:10;;;;;;;69.05;22.83;;;;;;;8.88;100.00;100214.91;4967625;28;20027;-76
2022/04/05 03:43:35;;;;;;;71.63;23.63;;;;;;;8.93;100.00;100214.53;4968200;28;20411;-76
2022/04/05 03:46:00;;;;;;;77.85;24.75;;;;;;;8.93;100.00;100217.25;4970086;28;20054;-76
2022/04/05 03:48:29;;;;;;;69.60;23.35;;;;;;;8.88;100.00;100214.06;4966907;28;20034;-76
2022/04/05 03:50:54;;;;;;;81.55;25.90;;;;;;;8.89;100.00;100218.53;4964805;28;20042;-76
2022/04/05 03:53:19;;;;;;;61.15;22.30;;;;;;;8.97;100.00;100214.16;4989113;28;20085;-76
2022/04/05 03:55:45;;;;;;;62.85;23.58;;;;;;;8.97;100.00;100218.75;4971529;28;20740;-76
2022/04/05 03:58:13;;;;;;;79.05;23.33;;;;;;;8.95;100.00;100215.25;4966228;28;20038;-75
2022/04/05 04:00:39;;;;;;;66.50;23.17;;;;;;;8.86;100.00;100216.03;4970436;28;20030;-75
2022/04/05 04:03:04;;;;;;;70.65;23.45;;;;;;;8.93;100.00;100218.13;4968736;28;20041;-76
2022/04/05 04:05:29;;;;;;;83.85;23.60;;;;;;;8.95;100.00;100210.69;4963952;28;20123;-76
2022/04/05 04:07:55;;;;;;;67.43;21.63;;;;;;;8.97;100.00;100213.31;4957912;28;20039;-76
2022/04/05 04:10:20;;;;;;;74.32;23.23;;;;;;;8.98;100.00;100206.81;4952277;28;20057;-76
2022/04/05 04:12:46;;;;;;;63.08;21.08;;;;;;;8.93;100.00;100212.66;4970183;28;20035;-75
2022/04/05 04:15:12;;;;;;;61.78;21.13;;;;;;;8.93;100.00;100215.38;4970359;28;20050;-75
2022/04/05 04:17:38;;;;;;;71.25;22.35;;;;;;;8.94;100.00;100211.69;4967925;28;20101;-76
2022/04/05 04:20:04;;;;;;;72.65;21.55;;;;;;;8.94;100.00;100208.94;4968670;28;20065;-76
2022/04/05 04:22:30;;;;;;;59.75;20.60;;;;;;;8.96;100.00;100206.09;4972554;28;20062;-77
2022/04/05 04:24:57;;;;;;;62.75;21.05;;;;;;;8.99;100.00;100214.03;4967814;28;20505;-76
2022/04/05 04:27:24;;;;;;;55.58;20.13;;;;;;;8.91;100.00;100203.75;4950105;28;20170;-76
2022/04/05 04:29:49;;;;;;;78.15;22.30;;;;;;;8.88;100.00;100204.00;4951179;28;20071;-76
2022/04/05 04:32:15;;;;;;;67.32;22.17;;;;;;;8.94;100.00;100216.28;4966452;28;20530;-76
2022/04/05 04:34:41;;;;;;;81.85;22.30;;;;;;;8.92;100.00;100208.22;4962769;28;20126;-76
2022/04/05 04:37:07;;;;;;;66.72;22.42;;;;;;;8.94;100.00;100213.56;4958205;28;20050;-76
2022/04/05 04:39:33;;;;;;;68.40;21.98;;;;;;;8.94;100.00;100214.41;4964193;28;20027;-76
2022/04/05 04:41:59;;;;;;;58.63;20.73;;;;;;;8.99;100.00;100211.31;4966538;28;20534;-77
2022/04/05 04:44:26;;;;;;;79.22;22.35;;;;;;;8.90;100.00;100212.91;4960198;28;20125;-76
2022/04/05 04:46:51;;;;;;;73.18;22.50;;;;;;;8.89;100.00;100208.47;4951547;28;20046;-76
2022/04/05 04:49:17;;;;;;;64.30;21.98;;;;;;;8.96;100.00;100206.09;4962907;28;20047;-76
2022/04/05 04:51:42;;;;;;;64.22;22.08;;;;;;;8.93;100.00;100220.84;4970600;28;20058;-76
2022/04/05 04:54:08;;;;;;;82.47;22.55;;;;;;;8.92;100.00;100215.50;4943639;28;20038;-76
2022/04/05 04:56:33;;;;;;;70.38;21.88;;;;;;;8.92;100.00;100218.25;4947719;28;20094;-75
2022/04/05 04:58:58;;;;;;;69.00;22.98;;;;;;;8.97;100.00;100214.16;4967935;28;20051;-76
2022/04/05 05:01:24;;;;;;;59.05;20.48;;;;;;;8.96;100.00;100215.13;4963312;28;20467;-76
2022/04/05 05:03:49;;;;;;;87.22;25.05;;;;;;;8.88;100.00;100219.50;4962828;28;20039;-76
2022/04/05 05:06:18;;;;;;;55.72;19.65;;;;;;;8.94;100.00;100219.88;4972064;28;20041;-75
2022/04/05 05:08:43;;;;;;;82.53;22.45;;;;;;;8.88;100.00;100217.63;4968135;28;20043;-76
2022/04/05 05:11:10;;;;;;;60.25;20.75;;;;;;;8.96;100.00;100217.88;4969760;28;20461;-75
2022/04/05 05:13:36;;;;;;;62.92;21.63;;;;;;;8.98;100.00;100220.47;4965568;28;20026;-75
2022/04/05 05:16:02;;;;;;;57.70;20.63;;;;;;;8.92;100.00;100227.31;4966815;28;20438;-75
2022/04/05 05:18:28;;;;;;;62.50;20.63;;;;;;;8.94;100.00;100230.78;4970899;28;20042;-75
2022/04/05 05:20:54;;;;;;;60.72;21.08;;;;;;;9.02;100.00;100228.28;4965004;28;20134;-77
2022/04/05 05:23:19;;;;;;;64.28;20.15;;;;;;;8.98;100.00;100226.78;4964708;28;20113;-76
2022/04/05 05:25:46;;;;;;;62.97;19.92;;;;;;;8.90;100.00;100234.75;4964891;28;20062;-76
2022/04/05 05:28:12;;;;;;;64.10;20.88;;;;;;;8.92;100.00;100230.06;4965595;28;20026;-76
2022/04/05 05:30:37;;;;;;;57.67;20.33;;;;;;;8.92;100.00;100224.59;4959440;28;20054;-76
2022/04/05 05:33:02;;;;;;;67.07;21.05;;;;;;;8.94;100.00;100228.06;4969494;28;20094;-76
2022/04/05 05:35:28;;;;;;;68.80;21.50;;;;;;;8.90;100.00;100226.56;4978387;28;20043;-76
2022/04/05 05:37:56;;;;;;;54.22;18.23;;;;;;;8.99;100.00;100228.53;4960167;28;20036;-76
2022/04/05 05:40:22;;;;;;;77.72;19.63;;;;;;;8.96;100.00;100242.44;4984596;28;20077;-76
2022/04/05 05:42:48;;;;;;;60.60;20.98;;;;;;;8.98;100.00;100239.59;4962824;28;20395;-76
2022/04/05 05:45:14;;;;;;;55.05;19.42;;;;;;;9.00;100.00;100237.59;4986492;28;20049;-76
2022/04/05 05:47:39;;;;;;;59.42;19.92;;;;;;;8.99;100.00;100238.59;4988069;28;20038;-76
2022/04/05 05:50:06;;;;;;;63.55;20.00;;;;;;;8.98;100.00;100236.84;4961414;28;20059;-77
2022/04/05 05:52:31;;;;;;;59.85;18.98;;;;;;;8.99;100.00;100244.94;4966456;28;20065;-76
2022/04/05 05:54:56;;;;;;;64.65;19.85;;;;;;;9.00;100.00;100241.22;4968379;28;20113;-76
2022/04/05 05:57:22;;;;;;;57.72;18.15;;;;;;;9.03;100.00;100242.81;4960527;28;20182;-76
2022/04/05 05:59:47;;;;;;;61.80;18.88;;;;;;;8.95;100.00;100248.91;4987447;28;20153;-76
2022/04/05 06:02:12;;;;;;;57.88;19.00;;;;;;;9.02;100.00;100249.28;4979202;28;20108;-76
2022/04/05 06:04:38;;;;;;;60.03;18.73;;;;;;;9.02;100.00;100239.22;4958047;28;20057;-76
2022/04/05 06:07:03;;;;;;;58.45;17.52;;;;;;;9.01;100.00;100250.25;4985253;28;20030;-76
2022/04/05 06:09:29;;;;;;;50.40;16.73;;;;;;;9.01;100.00;100247.53;4981194;28;20486;-76
2022/04/05 06:11:54;;;;;;;53.83;18.67;;;;;;;8.98;100.00;100243.19;4981554;28;20034;-76
2022/04/05 06:14:19;;;;;;;49.53;16.70;;;;;;;9.04;100.00;100252.75;4964949;28;20031;-76
2022/04/05 06:16:45;;;;;;;57.92;17.27;;;;;;;8.98;100.00;100251.38;4962858;28;20077;-77
2022/04/05 06:19:10;;;;;;;48.75;16.90;;;;;;;9.05;100.00;100248.13;4971099;28;20042;-77
2022/04/05 06:21:36;;;;;;;58.15;18.92;;;;;;;9.07;100.00;100257.94;4969618;28;20037;-77
2022/04/05 06:24:01;;;;;;;47.97;16.92;;;;;;;9.09;100.00;100264.16;4979684;28;20065;-77
2022/04/05 06:26:27;;;;;;;52.40;18.73;;;;;;;8.98;100.00;100273.22;4986505;28;20031;-77
2022/04/05 06:28:54;;;;;;;53.00;16.70;;;;;;;9.09;100.00;100264.16;4963236;28;20050;-77
2022/04/05 06:31:19;;;;;;;64.35;19.85;;;;;;;9.05;100.00;100275.44;4951562;28;20037;-77
2022/04/05 06:33:44;;;;;;;66.80;19.33;;;;;;;9.00;100.00;100284.00;4960205;28;20601;-77
2022/04/05 06:36:10;;;;;;;58.38;19.13;;;;;;;9.00;100.00;100284.91;4967295;28;20034;-77
2022/04/05 06:38:35;;;;;;;57.78;19.98;;;;;;;9.02;100.00;100282.91;4964136;28;20050;-76
2022/04/05 06:41:01;;;;;;;63.40;21.80;;;;;;;9.16;100.00;100281.75;4961334;28;20034;-76
2022/04/05 06:43:26;;;;;;;73.55;21.95;;;;;;;9.04;100.00;100273.72;4959872;28;20027;-77
2022/04/05 06:45:52;;;;;;;64.10;21.90;;;;;;;9.08;100.00;100280.66;4965940;28;20071;-77
2022/04/05 06:48:18;;;;;;;68.53;22.65;;;;;;;9.09;100.00;100282.41;4961269;28;20047;-76
2022/04/05 06:50:44;;;;;;;79.45;23.55;;;;;;;9.08;100.00;100286.13;4959566;28;20106;-77
2022/04/05 06:53:10;;;;;;;64.47;23.98;;;;;;;9.10;100.00;100287.75;4963684;28;20182;-78
2022/04/05 06:55:37;;;;;;;73.75;24.45;;;;;;;9.07;100.00;100290.72;4963867;28;20100;-76
2022/04/05 06:58:03;;;;;;;76.47;24.60;;;;;;;9.09;100.00;100291.47;4961729;28;20495;-77
2022/04/05 07:00:29;;;;;;;77.05;26.20;;;;;;;9.06;100.00;100291.72;4967411;28;20039;-77
2022/04/05 07:02:56;;;;;;;69.60;25.13;;;;;;;9.11;100.00;100291.34;4959368;28;20030;-77
2022/04/05 07:05:23;;;;;;;63.75;24.65;;;;;;;9.19;100.00;100295.16;4963538;28;20132;-76
2022/04/05 07:07:49;;;;;;;64.03;24.50;;;;;;;9.16;100.00;100292.69;4966664;28;20371;-76
2022/04/05 07:10:16;;;;;;;73.07;25.95;;;;;;;9.19;100.00;100294.31;4973525;28;20035;-76
2022/04/05 07:12:43;;;;;;;70.18;26.48;;;;;;;9.16;100.00;100292.69;4965414;28;20166;-77
2022/04/05 07:15:10;;;;;;;77.75;26.02;;;;;;;9.21;100.00;100292.31;4968050;28;20046;-76
2022/04/05 07:17:39;;;;;;;77.32;24.48;;;;;;;9.25;100.00;100290.19;4968433;28;20031;-76
2022/04/05 07:20:08;;;;;;;95.47;26.13;;;;;;;9.26;100.00;100295.50;4966690;28;20482;-77
2022/04/05 07:22:34;;;;;;;73.40;24.52;;;;;;;9.29;100.00;100292.53;4966205;28;20062;-77
2022/04/05 07:25:00;;;;;;;73.57;25.13;;;;;;;9.29;100.00;100295.25;4963639;28;20676;-77
2022/04/05 07:27:29;;;;;;;63.25;23.23;;;;;;;9.26;100.00;100290.06;4958543;28;20027;-76
2022/04/05 07:29:55;;;;;;;53.88;21.95;;;;;;;9.32;100.00;100286.81;4971303;28;20502;-76
2022/04/05 07:32:20;;;;;;;69.63;22.23;;;;;;;9.30;100.00;100291.56;4969104;28;20034;-77
2022/04/05 07:34:45;;;;;;;59.25;22.50;;;;;;;9.32;100.00;100295.00;4948672;28;20395;-76
2022/04/05 07:37:11;;;;;;;52.22;20.17;;;;;;;9.36;100.00;100296.50;4966631;28;20035;-76
2022/04/05 07:39:38;;;;;;;52.35;20.10;;;;;;;9.37;100.00;100287.31;4963965;28;20030;-77
2022/04/05 07:42:04;;;;;;;53.40;18.17;;;;;;;9.38;100.00;100289.06;4961826;28;20755;-75
2022/04/05 07:44:29;;;;;;;44.38;18.02;;;;;;;9.41;100.00;100295.25;4962798;28;20042;-75
2022/04/05 07:46:54;;;;;;;55.55;19.15;;;;;;;9.41;100.00;100298.84;4965367;28;20042;-75
2022/04/05 07:49:20;;;;;;;50.88;18.25;;;;;;;9.38;100.00;100290.94;4968829;28;20035;-75
2022/04/05 07:51:45;;;;;;;51.08;18.88;;;;;;;9.35;100.00;100286.56;4968964;28;20415;-75
2022/04/05 07:54:11;;;;;;;64.20;19.15;;;;;;;9.37;100.00;100281.84;4969344;28;20027;-76
2022/04/05 07:56:36;;;;;;;58.22;19.23;;;;;;;9.43;100.00;100287.78;4958253;28;20080;-76
2022/04/05 07:59:02;;;;;;;56.78;18.23;;;;;;;9.49;100.00;100284.53;4952778;28;20057;-75
2022/04/05 08:01:29;;;;;;;40.05;15.63;;;;;;;9.68;100.00;100292.06;4971047;28;20154;-76
2022/04/05 08:03:56;;;;;;;52.33;18.15;;;;;;;9.53;100.00;100291.50;4960692;28;20038;-76
2022/04/05 08:06:24;;;;;;;53.08;18.10;;;;;;;9.49;100.00;100292.75;4963158;28;20062;-77
2022/04/05 08:08:50;;;;;;;43.30;17.75;;;;;;;9.51;100.00;100293.47;4964647;28;20046;-76
2022/04/05 08:11:16;;;;;;;52.85;17.50;;;;;;;9.50;100.00;100297.22;4953399;28;20041;-76
2022/04/05 08:13:41;;;;;;;45.95;16.75;;;;;;;9.44;100.00;100298.59;4962331;28;20367;-76
2022/04/05 08:16:06;;;;;;;40.13;16.25;;;;;;;9.44;100.00;100298.59;4968392;28;20061;-77
2022/04/05 08:18:32;;;;;;;44.22;17.52;;;;;;;9.35;100.00;100299.38;4969070;28;20137;-78
2022/04/05 08:20:57;;;;;;;46.70;15.82;;;;;;;9.46;100.00;100301.19;4973915;28;20039;-77
2022/04/05 08:23:23;;;;;;;42.28;15.98;;;;;;;9.51;100.00;100299.81;4966530;28;20042;-76
2022/04/05 08:25:48;;;;;;;38.70;16.52;;;;;;;9.62;100.00;100309.84;4963291;28;20462;-77
2022/04/05 08:28:14;;;;;;;40.17;14.52;;;;;;;9.61;100.00;100305.38;4957504;28;20062;-78
2022/04/05 08:30:39;;;;;;;38.88;14.02;;;;;;;9.68;100.00;100305.75;4971821;28;20035;-77
2022/04/05 08:33:05;;;;;;;30.10;13.65;;;;;;;9.65;100.00;100306.00;4964175;28;20489;-77
2022/04/05 08:35:32;;;;;;;40.10;15.13;;;;;;;9.62;100.00;100307.09;4972514;28;20506;-77
2022/04/05 08:37:58;;;;;;;32.03;14.20;;;;;;;9.73;100.00;100315.28;4992256;28;20517;-80
2022/04/05 08:40:25;;;;;;;34.83;14.38;;;;;;;9.71;100.00;100320.00;4989420;28;20026;-80
2022/04/05 08:42:52;;;;;;;38.67;14.02;;;;;;;9.63;100.00;100316.19;4993090;28;20497;-79
2022/04/05 08:45:19;;;;;;;48.13;14.20;;;;;;;9.67;100.00;100318.50;4995373;28;20030;-79
2022/04/05 08:47:51;;;;;;;33.20;13.85;;;;;;;9.72;100.00;100320.88;4969174;28;20084;-79
2022/04/05 08:50:23;;;;;;;32.92;12.90;;;;;;;9.69;100.00;100319.28;4974004;28;20026;-77
2022/04/05 08:52:50;;;;;;;45.70;14.18;;;;;;;9.68;100.00;100322.13;4990004;28;20059;-77
2022/04/05 08:55:17;;;;;;;39.25;14.98;;;;;;;9.82;100.00;100318.22;4968349;28;20058;-80
2022/04/05 08:57:42;;;;;;;31.25;12.90;;;;;;;9.84;100.00;100317.13;4971713;28;20030;-78
2022/04/05 09:00:10;;;;;;;32.10;13.77;;;;;;;9.86;100.00;100314.25;4985293;28;20034;-78
2022/04/05 09:02:36;;;;;;;32.17;14.23;;;;;;;10.04;100.00;100317.28;4955274;28;20427;-77
2022/04/05 09:05:01;;;;;;;30.40;13.38;;;;;;;10.00;100.00;100321.25;4989859;28;20117;-78
2022/04/05 09:07:31;;;;;;;40.42;13.63;;;;;;;10.03;100.00;100316.38;4952628;28;20462;-78
2022/04/05 09:10:13;;;;;;;30.20;11.85;;;;;;;10.12;100.00;100325.69;4990619;28;20097;-77
2022/04/05 09:12:47;;;;;;;30.38;13.30;;;;;;;10.17;100.00;100319.84;4991140;28;20053;-78
2022/04/05 09:15:18;;;;;;;31.38;12.02;;;;;;;10.32;100.00;100326.72;4992369;28;20045;-78
2022/04/05 09:17:46;;;;;;;26.23;12.07;;;;;;;10.27;100.00;100316.16;4968088;28;20042;-78
2022/04/05 09:20:13;;;;;;;26.75;11.80;;;;;;;10.33;100.00;100322.13;4954904;28;20202;-78
2022/04/05 09:22:39;;;;;;;28.15;11.68;;;;;;;10.24;100.00;100318.28;4984906;28;20538;-77
2022/04/05 09:25:07;;;;;;;21.95;10.80;;;;;;;10.27;100.00;100320.75;4974502;28;20038;-77
2022/04/05 09:27:53;;;;;;;22.60;11.07;;;;;;;10.22;100.00;100323.91;4969216;28;20183;-77
2022/04/05 09:30:22;;;;;;;19.90;11.38;;;;;;;10.10;100.00;100319.47;4977841;28;20026;-78
2022/04/05 09:32:48;;;;;;;23.73;11.48;;;;;;;10.28;100.00;100320.63;4964077;28;20553;-78
2022/04/05 09:35:19;;;;;;;27.77;12.57;;;;;;;10.27;100.00;100327.09;4955109;28;20380;-78
2022/04/05 09:37:46;;;;;;;30.45;12.25;;;;;;;10.28;100.00;100323.38;4988164;28;20042;-77
2022/04/05 09:40:15;;;;;;;20.17;11.52;;;;;;;10.32;100.00;100328.59;4969628;28;20030;-78
2022/04/05 09:43:09;;;;;;;24.00;11.82;;;;;;;10.40;100.00;100329.66;4990393;28;20042;-77
2022/04/05 09:45:49;;;;;;;28.48;11.05;;;;;;;10.39;100.00;100327.06;4980096;28;20038;-78
2022/04/05 09:48:17;;;;;;;18.73;11.30;;;;;;;10.44;100.00;100333.84;4994647;28;20109;-78
2022/04/05 09:51:04;;;;;;;26.52;11.27;;;;;;;10.49;100.00;100338.94;4968465;28;20027;-78
2022/04/05 09:53:38;;;;;;;30.25;11.85;;;;;;;10.56;100.00;100337.41;4988117;28;20471;-79
2022/04/05 09:56:17;;;;;;;24.77;11.52;;;;;;;10.51;100.00;100344.28;4966613;28;20046;-78
2022/04/05 09:58:48;;;;;;;24.73;11.90;;;;;;;10.41;100.00;100345.09;4980392;28;20043;-79
2022/04/05 10:01:16;;;;;;;18.80;11.43;;;;;;;10.40;100.00;100337.03;4991883;28;20030;-78
2022/04/05 10:03:54;;;;;;;26.88;12.05;;;;;;;10.59;100.00;100344.47;4995616;28;20434;-80
2022/04/05 10:06:21;;;;;;;27.67;12.63;;;;;;;10.67;100.00;100347.41;4972293;28;20779;-84
2022/04/05 10:08:48;;;;;;;24.42;12.55;;;;;;;10.60;100.00;100335.28;4956394;28;20367;-81
2022/04/05 10:11:13;;;;;;;30.08;13.27;;;;;;;10.56;100.00;100344.75;4969855;28;20454;-79
2022/04/05 10:13:39;;;;;;;21.63;12.40;;;;;;;10.64;100.00;100345.81;4957473;28;20128;-81
2022/04/05 10:16:05;;;;;;;20.50;12.52;;;;;;;10.62;100.00;100345.06;4979085;28;20061;-84
2022/04/05 10:18:35;;;;;;;21.30;11.88;;;;;;;10.95;100.00;100356.81;4969985;28;20034;-83
2022/04/05 10:21:03;;;;;;;26.90;13.48;;;;;;;10.71;100.00;100350.75;4977992;28;20493;-82
2022/04/05 10:23:30;;;;;;;29.60;14.15;;;;;;;10.70;100.00;100355.34;4980578;28;20049;-82
2022/04/05 10:25:57;;;;;;;22.83;12.73;;;;;;;10.74;100.00;100345.00;4956305;28;20050;-82
2022/04/05 10:28:28;;;;;;;28.63;14.43;;;;;;;10.74;100.00;100337.69;4973555;28;20046;-85
2022/04/05 10:31:19;;;;;;;28.80;14.50;;;;;;;10.96;100.00;100336.63;4956180;28;20581;-85
2022/04/05 10:33:45;;;;;;;30.40;13.75;;;;;;;11.03;100.00;100340.56;4954724;28;20153;-82
2022/04/05 10:36:11;;;;;;;27.45;14.00;;;;;;;11.04;100.00;100355.13;4955407;28;20034;-81
2022/04/05 10:38:36;;;;;;;24.83;13.52;;;;;;;10.79;100.00;100335.38;4973798;28;20038;-84
2022/04/05 10:41:20;;;;;;;27.75;14.90;;;;;;;10.73;100.00;100351.50;4949655;28;20046;-83
2022/04/05 10:44:24;;;;;;;29.00;15.75;;;;;;;10.63;100.00;100340.50;4975883;28;20039;-82
2022/04/05 10:47:01;;;;;;;25.23;16.13;;;;;;;10.63;100.00;100341.34;4971433;28;20035;-82
2022/04/05 10:49:35;;;;;;;31.40;16.42;;;;;;;10.61;100.00;100347.97;4962197;28;20050;-82
2022/04/05 10:52:08;;;;;;;31.27;14.05;;;;;;;10.70;100.00;100346.28;4972260;28;20035;-83
2022/04/05 10:54:41;;;;;;;;;;;;;;;10.79;100.00;100350.94;4978233;28;20494;-82
2022/04/05 10:57:26;;;;;;;29.00;15.30;;;;;;;10.88;100.00;100346.53;4977959;28;19923;-82
2022/04/05 11:00:02;;;;;;;33.60;13.73;;;;;;;11.05;100.00;100343.13;4979681;28;20097;-81
2022/04/05 11:02:35;;;;;;;24.10;12.73;;;;;;;11.05;100.00;100337.66;4970503;28;20122;-82
2022/04/05 11:05:24;;;;;;;23.40;12.48;;;;;;;11.12;100.00;100336.13;4974586;28;20178;-83
2022/04/05 11:07:58;;;;;;;16.05;9.40;;;;;;;11.17;100.00;100332.97;4961098;28;20110;-83